sensor_id;sensor_type;location;lat;lon;timestamp;pressure;altitude;pressure_sealevel;temperature;humidity
29935;BME280;19905;53.370;-6.314;2023-04-09T00:01:09;101514.28;;;9.59;100.00
29935;BME280;19905;53.370;-6.314;2023-04-09T00:03:39;101514.44;;;9.56;100.00
29935;BME280;19905;53.370;-6.314;2023-04-09T00:06:10;101516.41;;;9.52;100.00
29935;BME280;19905;53.370;-6.314;2023-04-09T00:08:41;101509.16;;;9.56;100.00
29935;BME280;19905;53.370;-6.314;2023-04-09T00:11:11;101500.31;;;9.57;100.00
29935;BME280;19905;53.370;-6.314;2023-04-09T00:13:40;101498.63;;;9.56;100.00
29935;BME280;19905;53.370;-6.314;2023-04-09T00:16:08;101488.06;;;9.56;100.00
29935;BME280;19905;53.370;-6.314;2023-04-09T00:18:37;101476.69;;;9.55;100.00
29935;BME280;19905;53.370;-6.314;2023-04-09T00:21:07;101475.38;;;9.62;100.00
29935;BME280;19905;53.370;-6.314;2023-04-09T00:23:36;101471.69;;;9.51;100.00
29935;BME280;19905;53.370;-6.314;2023-04-09T00:26:07;101467.53;;;9.47;100.00
29935;BME280;19905;53.370;-6.314;2023-04-09T00:28:36;101465.00;;;9.45;100.00
29935;BME280;19905;53.370;-6.314;2023-04-09T00:31:07;101468.56;;;9.44;100.00
29935;BME280;19905;53.370;-6.314;2023-04-09T00:33:37;101465.25;;;9.40;100.00
29935;BME280;19905;53.370;-6.314;2023-04-09T00:36:05;101472.97;;;9.43;100.00
29935;BME280;19905;53.370;-6.314;2023-04-09T00:38:38;101482.78;;;9.41;100.00
29935;BME280;19905;53.370;-6.314;2023-04-09T00:41:08;101489.16;;;9.37;100.00
29935;BME280;19905;53.370;-6.314;2023-04-09T00:43:37;101483.50;;;9.43;100.00
29935;BME280;19905;53.370;-6.314;2023-04-09T00:46:07;101484.56;;;9.41;100.00
29935;BME280;19905;53.370;-6.314;2023-04-09T00:48:37;101489.06;;;9.39;100.00
29935;BME280;19905;53.370;-6.314;2023-04-09T00:51:07;101480.22;;;9.40;100.00
29935;BME280;19905;53.370;-6.314;2023-04-09T00:53:36;101481.81;;;9.42;100.00
29935;BME280;19905;53.370;-6.314;2023-04-09T00:56:08;101481.81;;;9.42;100.00
29935;BME280;19905;53.370;-6.314;2023-04-09T00:58:39;101474.59;;;9.46;100.00
29935;BME280;19905;53.370;-6.314;2023-04-09T01:01:08;101464.44;;;9.54;100.00
29935;BME280;19905;53.370;-6.314;2023-04-09T01:03:36;101459.88;;;9.42;100.00
29935;BME280;19905;53.370;-6.314;2023-04-09T01:06:09;101460.72;;;9.42;100.00
29935;BME280;19905;53.370;-6.314;2023-04-09T01:08:46;101441.69;;;9.37;100.00
29935;BME280;19905;53.370;-6.314;2023-04-09T01:11:30;101445.75;;;9.43;100.00
29935;BME280;19905;53.370;-6.314;2023-04-09T01:14:10;101436.16;;;9.42;100.00
29935;BME280;19905;53.370;-6.314;2023-04-09T01:16:43;101441.22;;;9.31;100.00
29935;BME280;19905;53.370;-6.314;2023-04-09T01:19:33;101445.94;;;9.26;100.00
29935;BME280;19905;53.370;-6.314;2023-04-09T01:22:04;101449.59;;;9.23;100.00
29935;BME280;19905;53.370;-6.314;2023-04-09T01:24:43;101443.28;;;9.26;100.00
29935;BME280;19905;53.370;-6.314;2023-04-09T01:27:20;101431.13;;;9.23;100.00
29935;BME280;19905;53.370;-6.314;2023-04-09T01:29:52;101432.53;;;9.29;100.00
29935;BME280;19905;53.370;-6.314;2023-04-09T01:32:22;101419.56;;;9.26;100.00
29935;BME280;19905;53.370;-6.314;2023-04-09T01:34:52;101412.81;;;9.36;100.00
29935;BME280;19905;53.370;-6.314;2023-04-09T01:37:22;101406.00;;;9.32;100.00
29935;BME280;19905;53.370;-6.314;2023-04-09T01:39:52;101411.47;;;9.29;100.00
29935;BME280;19905;53.370;-6.314;2023-04-09T01:42:21;101399.91;;;9.31;100.00
29935;BME280;19905;53.370;-6.314;2023-04-09T01:44:52;101401.84;;;9.28;100.00
29935;BME280;19905;53.370;-6.314;2023-04-09T01:47:21;101401.41;;;9.35;100.00
29935;BME280;19905;53.370;-6.314;2023-04-09T01:49:50;101399.06;;;9.31;100.00
29935;BME280;19905;53.370;-6.314;2023-04-09T01:52:19;101392.34;;;9.25;100.00
29935;BME280;19905;53.370;-6.314;2023-04-09T01:54:49;101386.31;;;9.23;100.00
29935;BME280;19905;53.370;-6.314;2023-04-09T01:57:18;101388.38;;;9.18;100.00
29935;BME280;19905;53.370;-6.314;2023-04-09T01:59:46;101372.84;;;9.13;100.00
29935;BME280;19905;53.370;-6.314;2023-04-09T02:02:19;101358.72;;;9.14;100.00
29935;BME280;19905;53.370;-6.314;2023-04-09T02:04:51;101332.84;;;9.21;100.00
29935;BME280;19905;53.370;-6.314;2023-04-09T02:07:26;101321.16;;;9.25;100.00
29935;BME280;19905;53.370;-6.314;2023-04-09T02:09:58;101318.25;;;9.15;100.00
29935;BME280;19905;53.370;-6.314;2023-04-09T02:12:30;101316.28;;;9.19;100.00
29935;BME280;19905;53.370;-6.314;2023-04-09T02:14:59;101310.81;;;9.22;100.00
29935;BME280;19905;53.370;-6.314;2023-04-09T02:17:32;101319.28;;;9.27;100.00
29935;BME280;19905;53.370;-6.314;2023-04-09T02:20:01;101330.56;;;9.15;100.00
29935;BME280;19905;53.370;-6.314;2023-04-09T02:22:30;101329.84;;;9.13;100.00
29935;BME280;19905;53.370;-6.314;2023-04-09T02:24:58;101328.22;;;9.10;100.00
29935;BME280;19905;53.370;-6.314;2023-04-09T02:27:27;101331.41;;;9.15;100.00
29935;BME280;19905;53.370;-6.314;2023-04-09T02:29:56;101331.13;;;9.06;100.00
29935;BME280;19905;53.370;-6.314;2023-04-09T02:32:27;101323.31;;;9.04;100.00
29935;BME280;19905;53.370;-6.314;2023-04-09T02:34:57;101325.56;;;8.96;100.00
29935;BME280;19905;53.370;-6.314;2023-04-09T02:37:26;101338.16;;;8.91;100.00
29935;BME280;19905;53.370;-6.314;2023-04-09T02:39:55;101347.88;;;9.05;100.00
29935;BME280;19905;53.370;-6.314;2023-04-09T02:42:23;101339.00;;;8.91;100.00
29935;BME280;19905;53.370;-6.314;2023-04-09T02:44:53;101340.06;;;8.89;100.00
29935;BME280;19905;53.370;-6.314;2023-04-09T02:47:22;101333.34;;;8.83;100.00
29935;BME280;19905;53.370;-6.314;2023-04-09T02:49:53;101337.69;;;8.84;100.00
29935;BME280;19905;53.370;-6.314;2023-04-09T02:52:23;101331.09;;;8.77;100.00
29935;BME280;19905;53.370;-6.314;2023-04-09T02:54:53;101333.72;;;8.77;100.00
29935;BME280;19905;53.370;-6.314;2023-04-09T02:57:21;101331.94;;;8.78;100.00
29935;BME280;19905;53.370;-6.314;2023-04-09T02:59:50;101334.66;;;8.76;100.00
29935;BME280;19905;53.370;-6.314;2023-04-09T03:02:21;101328.91;;;8.84;100.00
29935;BME280;19905;53.370;-6.314;2023-04-09T03:04:52;101325.44;;;8.83;100.00
29935;BME280;19905;53.370;-6.314;2023-04-09T03:07:22;101316.91;;;8.80;100.00
29935;BME280;19905;53.370;-6.314;2023-04-09T03:09:51;101312.28;;;8.98;100.00
29935;BME280;19905;53.370;-6.314;2023-04-09T03:12:20;101303.25;;;8.87;100.00
29935;BME280;19905;53.370;-6.314;2023-04-09T03:14:49;101305.53;;;8.94;100.00
29935;BME280;19905;53.370;-6.314;2023-04-09T03:17:18;101292.25;;;8.95;100.00
29935;BME280;19905;53.370;-6.314;2023-04-09T03:19:46;101283.03;;;9.02;100.00
29935;BME280;19905;53.370;-6.314;2023-04-09T03:22:15;101284.75;;;9.03;100.00
29935;BME280;19905;53.370;-6.314;2023-04-09T03:24:45;101284.47;;;9.08;100.00
29935;BME280;19905;53.370;-6.314;2023-04-09T03:27:14;101272.31;;;9.05;100.00
29935;BME280;19905;53.370;-6.314;2023-04-09T03:29:43;101263.44;;;9.06;100.00
29935;BME280;19905;53.370;-6.314;2023-04-09T03:32:12;101267.69;;;9.09;100.00
29935;BME280;19905;53.370;-6.314;2023-04-09T03:34:45;101254.41;;;9.10;100.00
29935;BME280;19905;53.370;-6.314;2023-04-09T03:37:13;101255.47;;;9.08;100.00
29935;BME280;19905;53.370;-6.314;2023-04-09T03:39:42;101251.13;;;9.07;100.00
29935;BME280;19905;53.370;-6.314;2023-04-09T03:42:12;101254.72;;;9.06;100.00
29935;BME280;19905;53.370;-6.314;2023-04-09T03:44:41;101249.16;;;9.10;100.00
29935;BME280;19905;53.370;-6.314;2023-04-09T03:47:10;101247.34;;;9.11;100.00
29935;BME280;19905;53.370;-6.314;2023-04-09T03:49:39;101247.63;;;9.06;100.00
29935;BME280;19905;53.370;-6.314;2023-04-09T03:52:08;101241.53;;;9.06;100.00
29935;BME280;19905;53.370;-6.314;2023-04-09T03:54:36;101241.47;;;9.07;100.00
29935;BME280;19905;53.370;-6.314;2023-04-09T03:57:05;101245.13;;;9.05;100.00
29935;BME280;19905;53.370;-6.314;2023-04-09T03:59:36;101236.25;;;9.06;100.00
29935;BME280;19905;53.370;-6.314;2023-04-09T04:02:04;101229.97;;;9.08;100.00
29935;BME280;19905;53.370;-6.314;2023-04-09T04:04:33;101250.56;;;9.02;100.00
29935;BME280;19905;53.370;-6.314;2023-04-09T04:07:02;101254.53;;;8.95;100.00
29935;BME280;19905;53.370;-6.314;2023-04-09T04:09:31;101242.88;;;8.99;100.00
29935;BME280;19905;53.370;-6.314;2023-04-09T04:12:00;101245.69;;;8.96;100.00
29935;BME280;19905;53.370;-6.314;2023-04-09T04:14:30;101225.25;;;8.99;100.00
29935;BME280;19905;53.370;-6.314;2023-04-09T04:17:00;101230.03;;;8.93;100.00
29935;BME280;19905;53.370;-6.314;2023-04-09T04:19:29;101208.41;;;8.87;100.00
29935;BME280;19905;53.370;-6.314;2023-04-09T04:22:00;101214.44;;;8.89;100.00
29935;BME280;19905;53.370;-6.314;2023-04-09T04:24:28;101203.91;;;8.89;100.00
29935;BME280;19905;53.370;-6.314;2023-04-09T04:26:57;101213.78;;;8.86;100.00
29935;BME280;19905;53.370;-6.314;2023-04-09T04:29:26;101207.75;;;8.84;100.00
29935;BME280;19905;53.370;-6.314;2023-04-09T04:31:55;101197.97;;;8.86;100.00
29935;BME280;19905;53.370;-6.314;2023-04-09T04:34:25;101207.19;;;8.93;100.00
29935;BME280;19905;53.370;-6.314;2023-04-09T04:36:53;101198.81;;;8.86;100.00
29935;BME280;19905;53.370;-6.314;2023-04-09T04:39:22;101203.34;;;8.84;100.00
29935;BME280;19905;53.370;-6.314;2023-04-09T04:41:51;101202.56;;;8.82;100.00
29935;BME280;19905;53.370;-6.314;2023-04-09T04:44:20;101207.75;;;8.84;100.00
29935;BME280;19905;53.370;-6.314;2023-04-09T04:46:49;101215.84;;;8.81;100.00
29935;BME280;19905;53.370;-6.314;2023-04-09T04:49:18;101213.31;;;8.94;100.00
29935;BME280;19905;53.370;-6.314;2023-04-09T04:51:48;101217.44;;;8.83;100.00
29935;BME280;19905;53.370;-6.314;2023-04-09T04:54:16;101203.06;;;8.89;100.00
29935;BME280;19905;53.370;-6.314;2023-04-09T04:56:48;101217.44;;;8.83;100.00
29935;BME280;19905;53.370;-6.314;2023-04-09T04:59:17;101212.28;;;8.82;100.00
29935;BME280;19905;53.370;-6.314;2023-04-09T05:01:45;101205.50;;;8.78;100.00
29935;BME280;19905;53.370;-6.314;2023-04-09T05:04:14;101215.56;;;8.71;100.00
29935;BME280;19905;53.370;-6.314;2023-04-09T05:06:42;101202.28;;;8.73;100.00
29935;BME280;19905;53.370;-6.314;2023-04-09T05:09:13;101206.88;;;8.69;100.00
29935;BME280;19905;53.370;-6.314;2023-04-09T05:11:41;101206.31;;;8.64;100.00
29935;BME280;19905;53.370;-6.314;2023-04-09T05:14:09;101201.84;;;8.66;100.00
29935;BME280;19905;53.370;-6.314;2023-04-09T05:16:39;101196.84;;;8.61;100.00
29935;BME280;19905;53.370;-6.314;2023-04-09T05:19:08;101184.81;;;8.57;100.00
29935;BME280;19905;53.370;-6.314;2023-04-09T05:21:38;101192.03;;;8.54;100.00
29935;BME280;19905;53.370;-6.314;2023-04-09T05:24:06;101198.03;;;8.56;100.00
29935;BME280;19905;53.370;-6.314;2023-04-09T05:26:36;101186.75;;;8.54;100.00
29935;BME280;19905;53.370;-6.314;2023-04-09T05:29:05;101190.41;;;8.51;100.00
29935;BME280;19905;53.370;-6.314;2023-04-09T05:31:35;101190.50;;;8.50;100.00
29935;BME280;19905;53.370;-6.314;2023-04-09T05:34:03;101207.31;;;8.47;100.00
29935;BME280;19905;53.370;-6.314;2023-04-09T05:36:33;101197.84;;;8.45;100.00
29935;BME280;19905;53.370;-6.314;2023-04-09T05:39:02;101196.22;;;8.42;100.00
29935;BME280;19905;53.370;-6.314;2023-04-09T05:41:30;101190.13;;;8.42;100.00
29935;BME280;19905;53.370;-6.314;2023-04-09T05:44:03;101196.31;;;8.40;100.00
29935;BME280;19905;53.370;-6.314;2023-04-09T05:46:32;101189.28;;;8.41;100.00
29935;BME280;19905;53.370;-6.314;2023-04-09T05:49:00;101194.44;;;8.43;100.00
29935;BME280;19905;53.370;-6.314;2023-04-09T05:51:29;101191.16;;;8.39;100.00
29935;BME280;19905;53.370;-6.314;2023-04-09T05:53:58;101193.53;;;8.44;100.00
29935;BME280;19905;53.370;-6.314;2023-04-09T05:56:26;101197.94;;;8.43;100.00
29935;BME280;19905;53.370;-6.314;2023-04-09T05:58:55;101198.03;;;8.42;100.00
29935;BME280;19905;53.370;-6.314;2023-04-09T06:01:26;101201.69;;;8.39;100.00
29935;BME280;19905;53.370;-6.314;2023-04-09T06:03:57;101194.53;;;8.41;100.00
29935;BME280;19905;53.370;-6.314;2023-04-09T06:06:26;101197.66;;;8.48;100.00
29935;BME280;19905;53.370;-6.314;2023-04-09T06:08:55;101197.66;;;8.48;100.00
29935;BME280;19905;53.370;-6.314;2023-04-09T06:11:24;101208.00;;;8.51;100.00
29935;BME280;19905;53.370;-6.314;2023-04-09T06:13:52;101210.09;;;8.60;100.00
29935;BME280;19905;53.370;-6.314;2023-04-09T06:16:22;101204.63;;;8.63;100.00
29935;BME280;19905;53.370;-6.314;2023-04-09T06:18:53;101202.19;;;8.60;100.00
29935;BME280;19905;53.370;-6.314;2023-04-09T06:21:23;101206.06;;;8.69;100.00
29935;BME280;19905;53.370;-6.314;2023-04-09T06:23:53;101198.44;;;8.78;100.00
29935;BME280;19905;53.370;-6.314;2023-04-09T06:26:22;101202.75;;;8.79;100.00
29935;BME280;19905;53.370;-6.314;2023-04-09T06:28:51;101196.47;;;8.82;100.00
29935;BME280;19905;53.370;-6.314;2023-04-09T06:31:20;101187.53;;;8.84;100.00
29935;BME280;19905;53.370;-6.314;2023-04-09T06:33:48;101195.34;;;9.00;100.00
29935;BME280;19905;53.370;-6.314;2023-04-09T06:36:19;101186.03;;;8.95;100.00
29935;BME280;19905;53.370;-6.314;2023-04-09T06:38:48;101166.25;;;9.02;100.00
29935;BME280;19905;53.370;-6.314;2023-04-09T06:41:19;101158.13;;;9.19;100.00
29935;BME280;19905;53.370;-6.314;2023-04-09T06:43:48;101151.56;;;9.12;100.00
29935;BME280;19905;53.370;-6.314;2023-04-09T06:46:17;101159.06;;;9.18;100.00
29935;BME280;19905;53.370;-6.314;2023-04-09T06:48:46;101144.22;;;9.17;100.00
29935;BME280;19905;53.370;-6.314;2023-04-09T06:51:15;101147.47;;;9.21;100.00
29935;BME280;19905;53.370;-6.314;2023-04-09T06:53:45;101143.81;;;9.23;100.00
29935;BME280;19905;53.370;-6.314;2023-04-09T06:56:15;101136.44;;;9.28;100.00
29935;BME280;19905;53.370;-6.314;2023-04-09T06:58:44;101133.63;;;9.31;100.00
29935;BME280;19905;53.370;-6.314;2023-04-09T07:01:13;101127.03;;;9.24;100.00
29935;BME280;19905;53.370;-6.314;2023-04-09T07:06:14;101116.69;;;9.35;100.00
29935;BME280;19905;53.370;-6.314;2023-04-09T07:08:45;101118.16;;;9.39;100.00
29935;BME280;19905;53.370;-6.314;2023-04-09T07:11:15;101112.78;;;9.41;100.00
29935;BME280;19905;53.370;-6.314;2023-04-09T07:13:44;101102.03;;;9.44;100.00
29935;BME280;19905;53.370;-6.314;2023-04-09T07:16:12;101100.03;;;9.48;100.00
29935;BME280;19905;53.370;-6.314;2023-04-09T07:18:42;101098.53;;;9.43;100.00
29935;BME280;19905;53.370;-6.314;2023-04-09T07:21:11;101089.00;;;9.55;100.00
29935;BME280;19905;53.370;-6.314;2023-04-09T07:23:41;101093.00;;;9.61;100.00
29935;BME280;19905;53.370;-6.314;2023-04-09T07:26:11;101083.44;;;9.73;100.00
29935;BME280;19905;53.370;-6.314;2023-04-09T07:28:41;101083.44;;;9.73;100.00
29935;BME280;19905;53.370;-6.314;2023-04-09T07:31:10;101078.50;;;9.81;100.00
29935;BME280;19905;53.370;-6.314;2023-04-09T07:33:40;101077.94;;;9.76;100.00
29935;BME280;19905;53.370;-6.314;2023-04-09T07:36:08;101067.09;;;9.80;100.00
29935;BME280;19905;53.370;-6.314;2023-04-09T07:38:37;101067.09;;;9.80;100.00
29935;BME280;19905;53.370;-6.314;2023-04-09T07:41:06;101065.19;;;9.82;100.00
29935;BME280;19905;53.370;-6.314;2023-04-09T07:43:39;101058.25;;;9.81;100.00
29935;BME280;19905;53.370;-6.314;2023-04-09T07:46:08;101053.91;;;9.93;100.00
29935;BME280;19905;53.370;-6.314;2023-04-09T07:48:37;101040.84;;;9.91;100.00
29935;BME280;19905;53.370;-6.314;2023-04-09T07:51:06;101055.50;;;9.96;100.00
29935;BME280;19905;53.370;-6.314;2023-04-09T07:53:34;101042.72;;;10.15;100.00
29935;BME280;19905;53.370;-6.314;2023-04-09T07:56:04;101039.13;;;10.03;100.00
29935;BME280;19905;53.370;-6.314;2023-04-09T07:58:33;101045.06;;;10.19;100.00
29935;BME280;19905;53.370;-6.314;2023-04-09T08:01:04;101032.50;;;10.23;100.00
29935;BME280;19905;53.370;-6.314;2023-04-09T08:03:33;101035.53;;;10.17;100.00
29935;BME280;19905;53.370;-6.314;2023-04-09T08:06:03;101049.59;;;10.43;100.00
29935;BME280;19905;53.370;-6.314;2023-04-09T08:08:32;101048.28;;;10.61;100.00
29935;BME280;19905;53.370;-6.314;2023-04-09T08:11:01;101041.19;;;10.75;100.00
29935;BME280;19905;53.370;-6.314;2023-04-09T08:13:29;101038.91;;;10.94;100.00
29935;BME280;19905;53.370;-6.314;2023-04-09T08:15:59;101037.09;;;10.94;100.00
29935;BME280;19905;53.370;-6.314;2023-04-09T08:18:31;101017.81;;;10.81;100.00
29935;BME280;19905;53.370;-6.314;2023-04-09T08:21:04;101034.38;;;10.96;100.00
29935;BME280;19905;53.370;-6.314;2023-04-09T08:23:33;101035.06;;;10.98;100.00
29935;BME280;19905;53.370;-6.314;2023-04-09T08:26:02;101024.16;;;11.03;100.00
29935;BME280;19905;53.370;-6.314;2023-04-09T08:28:30;101004.81;;;11.02;100.00
29935;BME280;19905;53.370;-6.314;2023-04-09T08:30:59;100994.41;;;11.12;100.00
29935;BME280;19905;53.370;-6.314;2023-04-09T08:33:28;100998.53;;;11.16;100.00
29935;BME280;19905;53.370;-6.314;2023-04-09T08:35:58;100988.59;;;11.31;100.00
29935;BME280;19905;53.370;-6.314;2023-04-09T08:38:29;100992.13;;;11.42;100.00
29935;BME280;19905;53.370;-6.314;2023-04-09T08:40:57;101001.25;;;11.38;100.00
29935;BME280;19905;53.370;-6.314;2023-04-09T08:43:27;101000.53;;;11.36;100.00
29935;BME280;19905;53.370;-6.314;2023-04-09T08:46:18;101004.38;;;11.32;100.00
29935;BME280;19905;53.370;-6.314;2023-04-09T08:48:48;100994.38;;;11.36;100.00
29935;BME280;19905;53.370;-6.314;2023-04-09T08:51:21;101003.63;;;11.30;100.00
29935;BME280;19905;53.370;-6.314;2023-04-09T08:53:55;100990.53;;;11.40;100.00
29935;BME280;19905;53.370;-6.314;2023-04-09T08:56:28;100988.16;;;11.37;100.00
29935;BME280;19905;53.370;-6.314;2023-04-09T08:58:56;100992.84;;;11.44;100.00
29935;BME280;19905;53.370;-6.314;2023-04-09T09:01:26;100976.88;;;11.46;100.00
29935;BME280;19905;53.370;-6.314;2023-04-09T09:03:58;100984.13;;;11.55;100.00
29935;BME280;19905;53.370;-6.314;2023-04-09T09:06:30;100987.25;;;11.60;100.00
29935;BME280;19905;53.370;-6.314;2023-04-09T09:09:01;100970.06;;;11.66;100.00
29935;BME280;19905;53.370;-6.314;2023-04-09T09:11:31;100971.03;;;11.76;100.00
29935;BME280;19905;53.370;-6.314;2023-04-09T09:14:01;100966.69;;;11.64;100.00
29935;BME280;19905;53.370;-6.314;2023-04-09T09:16:31;100972.69;;;11.77;100.00
29935;BME280;19905;53.370;-6.314;2023-04-09T09:19:01;100961.19;;;11.78;100.00
29935;BME280;19905;53.370;-6.314;2023-04-09T09:21:31;100959.59;;;11.76;100.00
29935;BME280;19905;53.370;-6.314;2023-04-09T09:24:15;100971.94;;;11.53;100.00
29935;BME280;19905;53.370;-6.314;2023-04-09T09:26:44;100967.41;;;11.66;100.00
29935;BME280;19905;53.370;-6.314;2023-04-09T09:29:13;100972.47;;;11.69;100.00
29935;BME280;19905;53.370;-6.314;2023-04-09T09:31:45;100974.50;;;11.65;100.00
29935;BME280;19905;53.370;-6.314;2023-04-09T09:34:15;100966.56;;;11.65;100.00
29935;BME280;19905;53.370;-6.314;2023-04-09T09:36:47;100969.56;;;11.61;100.00
29935;BME280;19905;53.370;-6.314;2023-04-09T09:39:16;100971.81;;;11.54;100.00
29935;BME280;19905;53.370;-6.314;2023-04-09T09:41:45;100977.63;;;11.59;100.00
29935;BME280;19905;53.370;-6.314;2023-04-09T09:44:31;100974.25;;;11.57;100.00
29935;BME280;19905;53.370;-6.314;2023-04-09T09:47:03;100972.31;;;11.48;100.00
29935;BME280;19905;53.370;-6.314;2023-04-09T09:49:32;100983.00;;;11.47;100.00
29935;BME280;19905;53.370;-6.314;2023-04-09T09:52:03;100982.16;;;11.46;100.00
29935;BME280;19905;53.370;-6.314;2023-04-09T09:54:39;100973.75;;;11.41;100.00
29935;BME280;19905;53.370;-6.314;2023-04-09T09:57:09;100962.81;;;11.45;100.00
29935;BME280;19905;53.370;-6.314;2023-04-09T09:59:41;100975.28;;;11.43;100.00
29935;BME280;19905;53.370;-6.314;2023-04-09T10:02:17;100967.72;;;11.39;100.00
29935;BME280;19905;53.370;-6.314;2023-04-09T10:04:48;100965.28;;;11.36;100.00
29935;BME280;19905;53.370;-6.314;2023-04-09T10:07:20;100967.34;;;11.32;100.00
29935;BME280;19905;53.370;-6.314;2023-04-09T10:09:51;100969.38;;;11.29;100.00
29935;BME280;19905;53.370;-6.314;2023-04-09T10:12:22;100958.44;;;11.33;100.00
29935;BME280;19905;53.370;-6.314;2023-04-09T10:14:54;100950.03;;;11.39;100.00
29935;BME280;19905;53.370;-6.314;2023-04-09T10:17:23;100961.00;;;11.46;100.00
29935;BME280;19905;53.370;-6.314;2023-04-09T10:19:58;100959.44;;;11.43;100.00
29935;BME280;19905;53.370;-6.314;2023-04-09T10:22:32;100944.53;;;11.42;100.00
29935;BME280;19905;53.370;-6.314;2023-04-09T10:25:04;100943.06;;;11.38;100.00
29935;BME280;19905;53.370;-6.314;2023-04-09T10:27:37;100942.50;;;11.46;100.00
29935;BME280;19905;53.370;-6.314;2023-04-09T10:30:07;100944.78;;;11.51;100.00
29935;BME280;19905;53.370;-6.314;2023-04-09T10:32:36;100930.09;;;11.47;100.00
29935;BME280;19905;53.370;-6.314;2023-04-09T10:35:08;100939.25;;;11.54;100.00
29935;BME280;19905;53.370;-6.314;2023-04-09T10:37:47;100929.41;;;11.56;100.00
29935;BME280;19905;53.370;-6.314;2023-04-09T10:40:18;100917.97;;;11.55;100.00
29935;BME280;19905;53.370;-6.314;2023-04-09T10:42:47;100920.63;;;11.66;100.00
29935;BME280;19905;53.370;-6.314;2023-04-09T10:45:16;100912.78;;;11.42;100.00
29935;BME280;19905;53.370;-6.314;2023-04-09T10:47:49;100905.06;;;11.39;100.00
29935;BME280;19905;53.370;-6.314;2023-04-09T10:50:19;100904.94;;;11.30;100.00
29935;BME280;19905;53.370;-6.314;2023-04-09T10:52:53;100903.63;;;11.35;100.00
29935;BME280;19905;53.370;-6.314;2023-04-09T10:55:35;100906.59;;;11.19;100.00
29935;BME280;19905;53.370;-6.314;2023-04-09T10:58:05;100904.91;;;11.18;100.00
29935;BME280;19905;53.370;-6.314;2023-04-09T11:00:39;100898.88;;;11.16;100.00
29935;BME280;19905;53.370;-6.314;2023-04-09T11:03:20;100886.72;;;11.03;100.00
29935;BME280;19905;53.370;-6.314;2023-04-09T11:05:54;100879.63;;;11.03;100.00
29935;BME280;19905;53.370;-6.314;2023-04-09T11:08:27;100874.59;;;11.00;100.00
29935;BME280;19905;53.370;-6.314;2023-04-09T11:10:56;100870.06;;;11.13;100.00
29935;BME280;19905;53.370;-6.314;2023-04-09T11:13:28;100867.88;;;11.07;100.00
29935;BME280;19905;53.370;-6.314;2023-04-09T11:15:57;100878.97;;;11.24;100.00
29935;BME280;19905;53.370;-6.314;2023-04-09T11:18:28;100877.56;;;11.42;100.00
29935;BME280;19905;53.370;-6.314;2023-04-09T11:20:58;100865.91;;;11.56;100.00
29935;BME280;19905;53.370;-6.314;2023-04-09T11:23:30;100859.63;;;11.68;100.00
29935;BME280;19905;53.370;-6.314;2023-04-09T11:25:59;100853.19;;;11.83;100.00
29935;BME280;19905;53.370;-6.314;2023-04-09T11:28:28;100854.16;;;11.82;100.00
29935;BME280;19905;53.370;-6.314;2023-04-09T11:30:56;100860.75;;;11.88;100.00
29935;BME280;19905;53.370;-6.314;2023-04-09T11:33:31;100853.41;;;11.91;100.00
29935;BME280;19905;53.370;-6.314;2023-04-09T11:36:03;100852.44;;;11.70;100.00
29935;BME280;19905;53.370;-6.314;2023-04-09T11:38:35;100838.47;;;11.90;100.00
29935;BME280;19905;53.370;-6.314;2023-04-09T11:41:05;100848.09;;;12.03;100.00
29935;BME280;19905;53.370;-6.314;2023-04-09T11:43:38;100845.44;;;12.03;100.00
29935;BME280;19905;53.370;-6.314;2023-04-09T11:46:08;100842.84;;;11.91;100.00
29935;BME280;19905;53.370;-6.314;2023-04-09T11:48:37;100848.34;;;11.88;100.00
29935;BME280;19905;53.370;-6.314;2023-04-09T11:51:06;100847.84;;;11.94;100.00
29935;BME280;19905;53.370;-6.314;2023-04-09T11:53:36;100848.56;;;12.08;100.00
29935;BME280;19905;53.370;-6.314;2023-04-09T11:56:05;100844.97;;;11.86;100.00
29935;BME280;19905;53.370;-6.314;2023-04-09T11:58:34;100841.75;;;11.83;100.00
29935;BME280;19905;53.370;-6.314;2023-04-09T12:01:04;100840.16;;;11.69;100.00
29935;BME280;19905;53.370;-6.314;2023-04-09T12:03:34;100858.69;;;11.69;100.00
29935;BME280;19905;53.370;-6.314;2023-04-09T12:06:05;100845.09;;;11.62;100.00
29935;BME280;19905;53.370;-6.314;2023-04-09T12:08:38;100843.66;;;11.69;100.00
29935;BME280;19905;53.370;-6.314;2023-04-09T12:11:09;100817.94;;;11.83;100.00
29935;BME280;19905;53.370;-6.314;2023-04-09T12:13:38;100804.06;;;11.90;100.00
29935;BME280;19905;53.370;-6.314;2023-04-09T12:16:10;100809.59;;;11.76;100.00
29935;BME280;19905;53.370;-6.314;2023-04-09T12:18:39;100811.03;;;11.80;100.00
29935;BME280;19905;53.370;-6.314;2023-04-09T12:21:08;100805.28;;;11.86;100.00
29935;BME280;19905;53.370;-6.314;2023-04-09T12:23:39;100804.94;;;11.68;100.00
29935;BME280;19905;53.370;-6.314;2023-04-09T12:26:08;100811.16;;;11.67;100.00
29935;BME280;19905;53.370;-6.314;2023-04-09T12:28:37;100809.84;;;11.73;100.00
29935;BME280;19905;53.370;-6.314;2023-04-09T12:31:08;100815.16;;;11.73;100.00
29935;BME280;19905;53.370;-6.314;2023-04-09T12:33:38;100807.44;;;11.70;100.00
29935;BME280;19905;53.370;-6.314;2023-04-09T12:36:07;100798.53;;;11.71;100.00
29935;BME280;19905;53.370;-6.314;2023-04-09T12:38:36;100793.47;;;11.68;100.00
29935;BME280;19905;53.370;-6.314;2023-04-09T12:41:06;100790.59;;;11.71;100.00
29935;BME280;19905;53.370;-6.314;2023-04-09T12:43:35;100787.44;;;11.77;100.00
29935;BME280;19905;53.370;-6.314;2023-04-09T12:46:05;100777.72;;;11.78;100.00
29935;BME280;19905;53.370;-6.314;2023-04-09T12:48:34;100766.03;;;11.80;100.00
29935;BME280;19905;53.370;-6.314;2023-04-09T12:51:03;100759.19;;;11.89;100.00
29935;BME280;19905;53.370;-6.314;2023-04-09T12:53:32;100750.28;;;11.90;100.00